createdAt,value
2023-05-09T00:00:24.982Z,7.30
2023-05-09T00:05:26.717Z,8.40
2023-05-09T00:10:28.732Z,6.80
2023-05-09T00:15:30.568Z,8.40
2023-05-09T00:20:34.088Z,7.70
2023-05-09T00:25:36.055Z,7.80
2023-05-09T00:30:37.752Z,16.20
2023-05-09T00:35:40.336Z,10.10
2023-05-09T00:40:41.985Z,7.00
2023-05-09T00:45:45.907Z,8.60
2023-05-09T00:50:52.814Z,7.30
2023-05-09T00:55:56.821Z,6.80
2023-05-09T01:00:59.238Z,7.50
2023-05-09T01:06:11.642Z,7.70
2023-05-09T01:11:23.099Z,14.40
2023-05-09T01:16:51.382Z,12.60
2023-05-09T01:21:56.486Z,10.30
2023-05-09T01:27:33.793Z,9.10
2023-05-09T01:32:39.173Z,6.90
2023-05-09T01:37:42.965Z,6.90
2023-05-09T01:42:55.580Z,7.60
2023-05-09T01:47:58.616Z,14.80
2023-05-09T01:53:06.629Z,14.80
2023-05-09T01:58:09.713Z,10.30
2023-05-09T02:03:11.863Z,6.80
2023-05-09T02:08:18.927Z,6.00
2023-05-09T02:13:20.688Z,6.90
2023-05-09T02:18:22.858Z,11.00
2023-05-09T02:23:24.560Z,13.40
2023-05-09T02:28:28.320Z,11.30
2023-05-09T02:33:31.475Z,9.70
2023-05-09T02:38:34.678Z,6.20
2023-05-09T02:43:37.324Z,7.30
2023-05-09T02:48:39.238Z,15.80
2023-05-09T02:53:41.012Z,12.70
2023-05-09T02:58:42.780Z,10.10
2023-05-09T03:03:44.776Z,7.00
2023-05-09T03:08:47.816Z,8.50
2023-05-09T03:13:50.221Z,7.50
2023-05-09T03:18:52.312Z,7.10
2023-05-09T03:23:54.106Z,18.20
2023-05-09T03:28:55.997Z,11.80
2023-05-09T03:33:58.112Z,11.40
2023-05-09T03:39:00.776Z,11.20
2023-05-09T03:44:04.868Z,8.00
2023-05-09T03:49:07.298Z,11.00
2023-05-09T03:54:09.597Z,7.50
2023-05-09T03:59:11.687Z,17.00
2023-05-09T04:04:13.804Z,12.20
2023-05-09T04:09:15.990Z,8.60
2023-05-09T04:14:18.091Z,8.00
2023-05-09T04:19:20.829Z,7.20
2023-05-09T04:24:22.992Z,9.10
2023-05-09T04:29:25.075Z,6.90
2023-05-09T04:34:29.867Z,9.50
2023-05-09T04:39:33.350Z,8.40
2023-05-09T04:44:41.179Z,8.10
2023-05-09T04:49:43.561Z,7.40
2023-05-09T04:54:45.243Z,6.40
2023-05-09T04:59:47.568Z,6.20
2023-05-09T05:04:49.594Z,6.50
2023-05-09T05:09:52.144Z,6.10
2023-05-09T05:14:53.866Z,7.70
2023-05-09T05:19:56.648Z,4.90
2023-05-09T05:24:58.593Z,5.70
2023-05-09T05:30:00.772Z,6.50
2023-05-09T05:35:04.883Z,6.40
2023-05-09T05:40:13.436Z,6.20
2023-05-09T05:45:17.831Z,5.10
2023-05-09T05:50:22.892Z,5.00
2023-05-09T05:55:24.797Z,6.50
2023-05-09T06:00:27.444Z,5.70
2023-05-09T06:05:44.407Z,6.10
2023-05-09T06:10:46.334Z,5.70
2023-05-09T06:15:48.217Z,5.90
2023-05-09T06:20:50.689Z,5.60
2023-05-09T06:25:52.362Z,5.70
2023-05-09T06:30:54.027Z,4.70
2023-05-09T06:35:55.761Z,5.40
2023-05-09T06:40:57.524Z,4.80
2023-05-09T06:45:59.327Z,5.10
2023-05-09T06:51:01.144Z,5.50
2023-05-09T06:56:03.009Z,5.10
2023-05-09T07:01:05.033Z,4.70
2023-05-09T07:06:07.062Z,3.80
2023-05-09T07:11:08.958Z,4.40
2023-05-09T07:16:10.740Z,3.00
2023-05-09T07:21:12.443Z,4.40
2023-05-09T07:26:14.161Z,3.30
2023-05-09T07:31:15.898Z,4.70
2023-05-09T07:36:17.640Z,3.80
2023-05-09T07:41:19.469Z,3.40
2023-05-09T07:46:21.283Z,4.60
2023-05-09T07:51:23.077Z,3.60
2023-05-09T07:56:26.453Z,3.10
2023-05-09T08:01:28.383Z,4.00
2023-05-09T08:06:30.265Z,3.30
2023-05-09T08:11:36.006Z,2.70
2023-05-09T08:16:37.804Z,3.20
2023-05-09T08:21:39.667Z,3.40
2023-05-09T08:26:41.370Z,3.10
2023-05-09T08:31:43.537Z,3.50
2023-05-09T08:36:47.065Z,3.20
2023-05-09T08:41:48.875Z,3.10
2023-05-09T08:46:55.722Z,2.20
2023-05-09T08:51:57.955Z,2.40
2023-05-09T08:57:01.539Z,3.50
2023-05-09T09:02:07.219Z,3.10
2023-05-09T09:07:09.996Z,3.50
2023-05-09T09:12:12.823Z,2.70
2023-05-09T09:17:19.606Z,2.80
2023-05-09T09:22:22.554Z,2.90
2023-05-09T09:27:24.352Z,2.70
2023-05-09T09:32:34.239Z,3.20
2023-05-09T09:37:40.086Z,4.10
2023-05-09T09:42:49.197Z,3.80
2023-05-09T09:47:51.196Z,3.50
2023-05-09T09:52:57.919Z,3.30
2023-05-09T09:58:03.521Z,3.20
2023-05-09T10:03:05.589Z,4.40
2023-05-09T10:08:10.768Z,3.30
2023-05-09T10:13:12.944Z,3.20
2023-05-09T10:18:19.741Z,2.40
2023-05-09T10:23:24.146Z,2.70
2023-05-09T10:28:32.134Z,3.00
2023-05-09T10:33:50.121Z,2.70
2023-05-09T10:38:56.189Z,2.70
2023-05-09T10:43:58.712Z,2.40
2023-05-09T10:49:01.631Z,2.70
2023-05-09T10:54:15.614Z,2.30
2023-05-09T10:59:38.479Z,2.60
2023-05-09T11:04:41.118Z,1.50
2023-05-09T11:09:43.014Z,2.20
2023-05-09T11:14:49.983Z,2.60
2023-05-09T11:19:51.928Z,2.30
2023-05-09T11:25:02.645Z,2.60
2023-05-09T11:30:07.026Z,1.90
2023-05-09T11:35:10.266Z,2.10
2023-05-09T11:40:14.176Z,2.00
2023-05-09T11:45:17.677Z,2.40
2023-05-09T11:50:20.668Z,1.80
2023-05-09T11:55:23.236Z,1.90
2023-05-09T12:00:26.521Z,2.00
2023-05-09T12:05:28.441Z,2.20
2023-05-09T12:10:30.265Z,2.70
2023-05-09T12:15:38.833Z,2.40
2023-05-09T12:20:46.951Z,1.60
2023-05-09T12:25:56.313Z,2.30
2023-05-09T12:30:58.939Z,2.00
2023-05-09T12:36:04.855Z,2.40
2023-05-09T12:41:15.508Z,2.00
2023-05-09T12:46:24.400Z,1.90
2023-05-09T12:51:26.285Z,1.60
2023-05-09T12:56:33.424Z,2.00
2023-05-09T13:01:35.923Z,1.70
2023-05-09T13:06:47.694Z,1.70
2023-05-09T13:11:51.203Z,2.20
2023-05-09T13:16:54.053Z,1.50
2023-05-09T13:21:56.054Z,2.30
2023-05-09T13:26:57.962Z,2.60
2023-05-09T13:31:59.984Z,2.20
2023-05-09T13:37:02.027Z,1.90
2023-05-09T13:42:04.058Z,1.90
2023-05-09T13:47:07.880Z,2.20
2023-05-09T13:52:09.733Z,1.70
2023-05-09T13:57:11.796Z,2.00
2023-05-09T14:02:13.490Z,2.10
2023-05-09T14:07:16.762Z,2.00
2023-05-09T14:12:21.464Z,1.80
2023-05-09T14:17:23.237Z,2.00
2023-05-09T14:22:25.011Z,1.80
2023-05-09T14:27:27.479Z,2.00
2023-05-09T14:32:29.332Z,2.00
2023-05-09T14:37:32.030Z,1.90
2023-05-09T14:42:33.814Z,1.50
2023-05-09T14:47:35.855Z,2.20
2023-05-09T14:52:37.521Z,2.50
2023-05-09T14:57:39.482Z,2.30
2023-05-09T15:02:42.095Z,1.50
2023-05-09T15:07:43.901Z,2.10
2023-05-09T15:12:45.586Z,2.60
2023-05-09T15:17:47.562Z,2.50
2023-05-09T15:22:50.901Z,1.60
2023-05-09T15:27:52.783Z,1.60
2023-05-09T15:32:54.695Z,1.90
2023-05-09T15:37:56.397Z,3.10
2023-05-09T15:42:59.708Z,2.50
2023-05-09T15:48:13.402Z,1.40
2023-05-09T15:58:18.392Z,2.30
2023-05-09T16:03:20.225Z,2.20
2023-05-09T16:08:22.104Z,2.40
2023-05-09T16:13:23.938Z,1.70
2023-05-09T16:18:25.805Z,2.90
2023-05-09T16:23:27.460Z,2.20
2023-05-09T16:28:30.198Z,2.50
2023-05-09T16:33:32.602Z,2.50
2023-05-09T16:38:34.299Z,2.30
2023-05-09T16:43:36.026Z,1.90
2023-05-09T16:48:37.887Z,2.70
2023-05-09T16:53:39.622Z,2.30
2023-05-09T16:58:43.172Z,6.00
2023-05-09T17:03:45.357Z,3.10
2023-05-09T17:08:47.393Z,3.10
2023-05-09T17:13:49.155Z,2.30
2023-05-09T17:18:52.037Z,2.20
2023-05-09T17:23:54.011Z,2.10
2023-05-09T17:28:55.754Z,2.70
2023-05-09T17:33:57.667Z,3.20
2023-05-09T17:38:59.337Z,2.80
2023-05-09T17:44:01.097Z,2.80
2023-05-09T17:49:03.282Z,2.70
2023-05-09T17:54:05.725Z,2.40
2023-05-09T17:59:07.931Z,3.20
2023-05-09T18:04:09.644Z,3.40
2023-05-09T18:09:11.364Z,3.60
2023-05-09T18:14:13.132Z,3.30
2023-05-09T18:19:14.861Z,2.80
2023-05-09T18:24:17.102Z,3.30
2023-05-09T18:29:19.619Z,2.90
2023-05-09T18:34:22.062Z,3.00
2023-05-09T18:39:23.890Z,4.40
2023-05-09T18:44:25.574Z,4.00
2023-05-09T18:49:27.241Z,4.00
2023-05-09T18:54:29.064Z,4.10
2023-05-09T18:59:30.737Z,5.00
2023-05-09T19:04:34.087Z,5.90
2023-05-09T19:09:35.891Z,5.30
2023-05-09T19:14:38.119Z,4.80
2023-05-09T19:19:39.890Z,5.80
2023-05-09T19:24:42.507Z,4.60
2023-05-09T19:29:44.155Z,3.90
2023-05-09T19:34:46.097Z,4.00
2023-05-09T19:39:47.783Z,3.80
2023-05-09T19:44:52.382Z,3.60
2023-05-09T19:49:54.047Z,3.60
2023-05-09T19:54:55.941Z,3.40
2023-05-09T19:59:58.310Z,3.10
2023-05-09T20:05:00.595Z,3.40
2023-05-09T20:10:02.329Z,3.10
2023-05-09T20:15:06.697Z,3.40
2023-05-09T20:20:10.247Z,2.80
2023-05-09T20:25:13.396Z,3.20
2023-05-09T20:30:17.418Z,2.80
2023-05-09T20:35:19.715Z,3.30
2023-05-09T20:40:21.356Z,3.40
2023-05-09T20:45:23.129Z,2.60
2023-05-09T20:50:25.138Z,3.10
2023-05-09T20:55:27.259Z,3.20
2023-05-09T21:00:29.028Z,3.70
2023-05-09T21:05:30.713Z,3.30
2023-05-09T21:10:36.491Z,2.90
2023-05-09T21:15:39.623Z,3.60
2023-05-09T21:20:41.504Z,3.00
2023-05-09T21:25:43.247Z,3.80
2023-05-09T21:30:51.283Z,2.90
2023-05-09T21:35:53.373Z,3.60
2023-05-09T21:40:56.383Z,3.40
2023-05-09T21:45:58.203Z,4.20
2023-05-09T21:51:02.658Z,4.00
2023-05-09T21:56:04.772Z,3.40
2023-05-09T22:01:06.496Z,3.70
2023-05-09T22:06:08.169Z,5.90
2023-05-09T22:11:10.206Z,5.90
2023-05-09T22:16:13.296Z,4.70
2023-05-09T22:21:15.206Z,4.30
2023-05-09T22:26:16.974Z,3.50
2023-05-09T22:31:18.909Z,3.50
2023-05-09T22:36:21.797Z,4.10
2023-05-09T22:41:23.477Z,4.10
2023-05-09T22:46:25.417Z,5.00
2023-05-09T22:51:27.838Z,4.20
2023-05-09T22:56:29.567Z,4.50
2023-05-09T23:01:31.611Z,3.80
2023-05-09T23:06:33.851Z,4.90
2023-05-09T23:11:38.242Z,6.00
2023-05-09T23:16:41.085Z,6.20
2023-05-09T23:21:42.740Z,5.50
2023-05-09T23:26:45.027Z,4.80
2023-05-09T23:31:47.066Z,4.80
2023-05-09T23:36:49.012Z,5.80
2023-05-09T23:41:51.232Z,6.20
2023-05-09T23:46:54.019Z,6.70
2023-05-09T23:51:57.330Z,7.30
2023-05-09T23:56:59.083Z,5.30
